sensor_id;sensor_type;location;lat;lon;timestamp;pressure;altitude;pressure_sealevel;temperature;humidity
51297;BME280;37380;45.186;9.792;2023-06-22T00:01:20;101271.91;;;25.18;100.00
51297;BME280;37380;45.186;9.792;2023-06-22T00:03:49;101304.81;;;25.25;100.00
51297;BME280;37380;45.186;9.792;2023-06-22T00:06:17;101234.50;;;24.61;100.00
51297;BME280;37380;45.186;9.792;2023-06-22T00:08:44;101263.50;;;24.84;100.00
51297;BME280;37380;45.186;9.792;2023-06-22T00:11:11;101280.75;;;24.65;100.00
51297;BME280;37380;45.186;9.792;2023-06-22T00:13:39;101298.47;;;24.70;100.00
51297;BME280;37380;45.186;9.792;2023-06-22T00:16:06;101246.84;;;24.67;100.00
51297;BME280;37380;45.186;9.792;2023-06-22T00:18:33;101285.69;;;24.91;100.00
51297;BME280;37380;45.186;9.792;2023-06-22T00:21:00;101245.47;;;24.38;100.00
51297;BME280;37380;45.186;9.792;2023-06-22T00:23:27;101321.50;;;24.79;100.00
51297;BME280;37380;45.186;9.792;2023-06-22T00:25:54;101290.78;;;24.46;100.00
51297;BME280;37380;45.186;9.792;2023-06-22T00:28:21;101278.31;;;24.46;100.00
51297;BME280;37380;45.186;9.792;2023-06-22T00:30:49;101304.66;;;24.74;100.00
51297;BME280;37380;45.186;9.792;2023-06-22T00:33:17;101289.34;;;24.85;100.00
51297;BME280;37380;45.186;9.792;2023-06-22T00:35:44;101240.59;;;24.01;100.00
51297;BME280;37380;45.186;9.792;2023-06-22T00:38:11;101259.00;;;24.23;100.00
51297;BME280;37380;45.186;9.792;2023-06-22T00:40:41;101257.88;;;24.42;100.00
51297;BME280;37380;45.186;9.792;2023-06-22T00:43:08;101282.44;;;24.69;100.00
51297;BME280;37380;45.186;9.792;2023-06-22T00:45:35;101255.09;;;24.53;100.00
51297;BME280;37380;45.186;9.792;2023-06-22T00:48:03;101262.13;;;24.57;100.00
51297;BME280;37380;45.186;9.792;2023-06-22T00:50:32;101306.16;;;24.93;100.00
51297;BME280;37380;45.186;9.792;2023-06-22T00:53:05;101318.19;;;25.22;100.00
51297;BME280;37380;45.186;9.792;2023-06-22T00:55:37;101283.69;;;25.03;100.00
51297;BME280;37380;45.186;9.792;2023-06-22T00:58:06;101300.50;;;25.16;100.00
51297;BME280;37380;45.186;9.792;2023-06-22T01:00:39;101280.97;;;25.06;100.00
51297;BME280;37380;45.186;9.792;2023-06-22T01:03:06;101305.19;;;24.96;100.00
51297;BME280;37380;45.186;9.792;2023-06-22T01:05:38;101278.91;;;24.70;100.00
51297;BME280;37380;45.186;9.792;2023-06-22T01:08:36;101304.41;;;24.89;100.00
51297;BME280;37380;45.186;9.792;2023-06-22T01:11:23;101221.47;;;24.35;100.00
51297;BME280;37380;45.186;9.792;2023-06-22T01:16:38;101305.16;;;24.34;100.00
51297;BME280;37380;45.186;9.792;2023-06-22T01:21:55;101246.19;;;23.80;100.00
51297;BME280;37380;45.186;9.792;2023-06-22T01:24:41;101290.47;;;23.98;100.00
51297;BME280;37380;45.186;9.792;2023-06-22T01:27:32;101292.25;;;23.95;100.00
51297;BME280;37380;45.186;9.792;2023-06-22T01:30:02;101297.00;;;23.64;100.00
51297;BME280;37380;45.186;9.792;2023-06-22T01:32:34;101312.97;;;23.72;100.00
51297;BME280;37380;45.186;9.792;2023-06-22T01:35:05;101299.66;;;23.64;100.00
51297;BME280;37380;45.186;9.792;2023-06-22T01:37:34;101308.50;;;23.69;100.00
51297;BME280;37380;45.186;9.792;2023-06-22T01:40:03;101306.69;;;23.76;100.00
51297;BME280;37380;45.186;9.792;2023-06-22T01:42:33;101281.13;;;23.52;100.00
51297;BME280;37380;45.186;9.792;2023-06-22T01:45:03;101266.28;;;23.20;100.00
51297;BME280;37380;45.186;9.792;2023-06-22T01:47:31;101294.59;;;23.37;100.00
51297;BME280;37380;45.186;9.792;2023-06-22T01:49:59;101276.03;;;23.27;100.00
51297;BME280;37380;45.186;9.792;2023-06-22T01:52:26;101294.53;;;23.43;100.00
51297;BME280;37380;45.186;9.792;2023-06-22T01:54:55;101307.91;;;23.38;100.00
51297;BME280;37380;45.186;9.792;2023-06-22T01:57:24;101270.56;;;23.38;100.00
51297;BME280;37380;45.186;9.792;2023-06-22T02:00:01;101308.66;;;23.54;100.00
51297;BME280;37380;45.186;9.792;2023-06-22T02:02:38;101301.41;;;23.70;100.00
51297;BME280;37380;45.186;9.792;2023-06-22T02:05:09;101318.91;;;24.00;100.00
51297;BME280;37380;45.186;9.792;2023-06-22T02:07:50;101318.06;;;23.93;100.00
51297;BME280;37380;45.186;9.792;2023-06-22T02:10:20;101174.78;;;23.20;100.00
51297;BME280;37380;45.186;9.792;2023-06-22T02:12:48;101238.47;;;23.50;100.00
51297;BME280;37380;45.186;9.792;2023-06-22T02:15:18;101329.66;;;23.91;100.00
51297;BME280;37380;45.186;9.792;2023-06-22T02:17:47;101326.09;;;23.95;100.00
51297;BME280;37380;45.186;9.792;2023-06-22T02:20:15;101286.28;;;23.69;100.00
51297;BME280;37380;45.186;9.792;2023-06-22T02:22:43;101266.69;;;23.75;100.00
51297;BME280;37380;45.186;9.792;2023-06-22T02:25:10;101322.63;;;23.85;100.00
51297;BME280;37380;45.186;9.792;2023-06-22T02:27:37;101306.66;;;23.81;100.00
51297;BME280;37380;45.186;9.792;2023-06-22T02:30:08;101304.00;;;23.81;100.00
51297;BME280;37380;45.186;9.792;2023-06-22T02:32:38;101305.75;;;23.82;100.00
51297;BME280;37380;45.186;9.792;2023-06-22T02:35:09;101295.22;;;23.65;100.00
51297;BME280;37380;45.186;9.792;2023-06-22T02:37:37;101317.97;;;24.04;100.00
51297;BME280;37380;45.186;9.792;2023-06-22T02:40:09;101278.22;;;23.80;99.66
51297;BME280;37380;45.186;9.792;2023-06-22T02:42:37;101282.59;;;23.84;100.00
51297;BME280;37380;45.186;9.792;2023-06-22T02:45:04;101310.28;;;23.77;100.00
51297;BME280;37380;45.186;9.792;2023-06-22T02:47:32;101246.69;;;23.27;100.00
51297;BME280;37380;45.186;9.792;2023-06-22T02:49:59;101262.44;;;23.52;100.00
51297;BME280;37380;45.186;9.792;2023-06-22T02:52:28;101326.22;;;23.83;100.00
51297;BME280;37380;45.186;9.792;2023-06-22T02:54:57;101270.69;;;23.27;100.00
51297;BME280;37380;45.186;9.792;2023-06-22T02:57:25;101271.38;;;23.48;100.00
51297;BME280;37380;45.186;9.792;2023-06-22T02:59:52;101311.22;;;23.66;100.00
51297;BME280;37380;45.186;9.792;2023-06-22T03:02:19;101294.28;;;23.70;99.81
51297;BME280;37380;45.186;9.792;2023-06-22T03:04:49;101280.22;;;23.53;100.00
51297;BME280;37380;45.186;9.792;2023-06-22T03:07:16;101230.84;;;23.09;100.00
51297;BME280;37380;45.186;9.792;2023-06-22T03:09:45;101287.53;;;23.30;100.00
51297;BME280;37380;45.186;9.792;2023-06-22T03:12:12;101306.19;;;23.31;100.00
51297;BME280;37380;45.186;9.792;2023-06-22T03:14:49;101317.63;;;23.44;100.00
51297;BME280;37380;45.186;9.792;2023-06-22T03:17:16;101305.19;;;23.46;100.00
51297;BME280;37380;45.186;9.792;2023-06-22T03:19:43;101279.47;;;23.36;100.00
51297;BME280;37380;45.186;9.792;2023-06-22T03:22:10;101266.50;;;22.96;100.00
51297;BME280;37380;45.186;9.792;2023-06-22T03:24:40;101275.34;;;23.01;100.00
51297;BME280;37380;45.186;9.792;2023-06-22T03:27:07;101347.91;;;23.38;100.00
51297;BME280;37380;45.186;9.792;2023-06-22T03:29:34;101318.84;;;23.03;100.00
51297;BME280;37380;45.186;9.792;2023-06-22T03:32:02;101278.06;;;22.86;100.00
51297;BME280;37380;45.186;9.792;2023-06-22T03:34:32;101286.00;;;23.04;100.00
51297;BME280;37380;45.186;9.792;2023-06-22T03:37:05;101317.03;;;23.13;100.00
51297;BME280;37380;45.186;9.792;2023-06-22T03:39:33;101302.75;;;23.20;100.00
51297;BME280;37380;45.186;9.792;2023-06-22T03:42:00;101309.81;;;23.25;100.00
51297;BME280;37380;45.186;9.792;2023-06-22T03:44:27;101357.50;;;23.61;100.00
51297;BME280;37380;45.186;9.792;2023-06-22T03:46:54;101309.81;;;23.24;100.00
51297;BME280;37380;45.186;9.792;2023-06-22T03:49:21;101225.84;;;22.66;100.00
51297;BME280;37380;45.186;9.792;2023-06-22T03:51:48;101314.38;;;23.10;100.00
51297;BME280;37380;45.186;9.792;2023-06-22T03:54:15;101304.66;;;22.98;100.00
51297;BME280;37380;45.186;9.792;2023-06-22T03:56:42;101324.88;;;23.26;100.00
51297;BME280;37380;45.186;9.792;2023-06-22T03:59:09;101354.94;;;23.47;100.00
51297;BME280;37380;45.186;9.792;2023-06-22T04:01:37;101320.34;;;23.42;100.00
51297;BME280;37380;45.186;9.792;2023-06-22T04:04:04;101324.63;;;23.59;100.00
51297;BME280;37380;45.186;9.792;2023-06-22T04:06:31;101313.06;;;23.58;100.00
51297;BME280;37380;45.186;9.792;2023-06-22T04:08:58;101282.06;;;23.48;100.00
51297;BME280;37380;45.186;9.792;2023-06-22T04:11:25;101250.97;;;23.45;100.00
51297;BME280;37380;45.186;9.792;2023-06-22T04:13:52;101300.13;;;24.08;100.00
51297;BME280;37380;45.186;9.792;2023-06-22T04:16:20;101262.97;;;23.89;100.00
51297;BME280;37380;45.186;9.792;2023-06-22T04:18:47;101300.91;;;24.16;100.00
51297;BME280;37380;45.186;9.792;2023-06-22T04:21:14;101253.91;;;24.04;100.00
51297;BME280;37380;45.186;9.792;2023-06-22T04:23:41;101281.69;;;23.85;100.00
51297;BME280;37380;45.186;9.792;2023-06-22T04:26:08;101308.09;;;24.11;100.00
51297;BME280;37380;45.186;9.792;2023-06-22T04:28:35;101303.59;;;24.16;100.00
51297;BME280;37380;45.186;9.792;2023-06-22T04:31:02;101314.38;;;24.05;100.00
51297;BME280;37380;45.186;9.792;2023-06-22T04:33:30;101284.19;;;24.02;100.00
51297;BME280;37380;45.186;9.792;2023-06-22T04:35:58;101270.59;;;24.22;100.00
51297;BME280;37380;45.186;9.792;2023-06-22T04:38:27;101309.41;;;24.52;100.00
51297;BME280;37380;45.186;9.792;2023-06-22T04:40:54;101244.84;;;24.16;100.00
51297;BME280;37380;45.186;9.792;2023-06-22T04:43:22;101227.44;;;24.55;100.00
51297;BME280;37380;45.186;9.792;2023-06-22T04:45:49;101286.56;;;24.91;100.00
51297;BME280;37380;45.186;9.792;2023-06-22T04:48:20;101254.22;;;25.08;100.00
51297;BME280;37380;45.186;9.792;2023-06-22T04:50:48;101296.88;;;25.70;100.00
51297;BME280;37380;45.186;9.792;2023-06-22T04:53:16;101298.38;;;25.86;100.00
51297;BME280;37380;45.186;9.792;2023-06-22T04:55:43;101273.78;;;26.53;95.93
51297;BME280;37380;45.186;9.792;2023-06-22T04:58:14;101265.03;;;26.85;93.86
51297;BME280;37380;45.186;9.792;2023-06-22T05:00:41;101265.09;;;27.19;85.78
51297;BME280;37380;45.186;9.792;2023-06-22T05:03:07;101262.34;;;27.22;84.82
51297;BME280;37380;45.186;9.792;2023-06-22T05:05:46;101286.50;;;27.91;77.13
51297;BME280;37380;45.186;9.792;2023-06-22T05:08:13;101288.94;;;28.61;74.83
51297;BME280;37380;45.186;9.792;2023-06-22T05:10:41;101265.66;;;28.60;70.69
51297;BME280;37380;45.186;9.792;2023-06-22T05:13:28;101261.88;;;29.22;67.65
51297;BME280;37380;45.186;9.792;2023-06-22T05:15:55;101243.25;;;29.16;66.27
51297;BME280;37380;45.186;9.792;2023-06-22T05:18:29;101305.97;;;29.71;67.22
51297;BME280;37380;45.186;9.792;2023-06-22T05:20:58;101270.53;;;29.56;65.52
51297;BME280;37380;45.186;9.792;2023-06-22T05:23:25;101289.94;;;29.41;71.19
51297;BME280;37380;45.186;9.792;2023-06-22T05:25:52;101304.63;;;29.31;72.62
51297;BME280;37380;45.186;9.792;2023-06-22T05:28:20;101272.94;;;28.84;77.50
51297;BME280;37380;45.186;9.792;2023-06-22T05:30:50;101306.19;;;28.82;75.32
51297;BME280;37380;45.186;9.792;2023-06-22T05:33:17;101245.28;;;28.21;74.33
51297;BME280;37380;45.186;9.792;2023-06-22T05:35:44;101264.97;;;28.53;75.47
51297;BME280;37380;45.186;9.792;2023-06-22T05:38:11;101234.69;;;29.03;73.01
51297;BME280;37380;45.186;9.792;2023-06-22T05:40:39;101299.66;;;29.19;69.70
51297;BME280;37380;45.186;9.792;2023-06-22T05:43:07;101288.81;;;30.23;61.19
51297;BME280;37380;45.186;9.792;2023-06-22T05:45:36;101276.47;;;31.29;54.21
51297;BME280;37380;45.186;9.792;2023-06-22T05:48:03;101281.84;;;32.32;50.11
51297;BME280;37380;45.186;9.792;2023-06-22T05:50:31;101267.53;;;31.90;48.74
51297;BME280;37380;45.186;9.792;2023-06-22T05:52:58;101243.50;;;32.23;47.28
51297;BME280;37380;45.186;9.792;2023-06-22T05:55:25;101311.91;;;31.85;51.42
51297;BME280;37380;45.186;9.792;2023-06-22T05:57:52;101286.47;;;31.27;59.59
51297;BME280;37380;45.186;9.792;2023-06-22T06:00:20;101337.19;;;31.41;64.87
51297;BME280;37380;45.186;9.792;2023-06-22T06:02:47;101297.47;;;31.45;60.32
51297;BME280;37380;45.186;9.792;2023-06-22T06:05:16;101293.84;;;32.83;55.89
51297;BME280;37380;45.186;9.792;2023-06-22T06:07:43;101292.84;;;32.66;57.56
51297;BME280;37380;45.186;9.792;2023-06-22T06:10:10;101350.91;;;34.55;51.45
51297;BME280;37380;45.186;9.792;2023-06-22T06:12:37;101292.72;;;33.77;54.03
51297;BME280;37380;45.186;9.792;2023-06-22T06:15:05;101330.19;;;34.86;46.87
51297;BME280;37380;45.186;9.792;2023-06-22T06:17:35;101300.84;;;35.08;43.37
51297;BME280;37380;45.186;9.792;2023-06-22T06:20:02;101328.06;;;34.75;46.44
51297;BME280;37380;45.186;9.792;2023-06-22T06:22:31;101361.59;;;33.90;49.97
51297;BME280;37380;45.186;9.792;2023-06-22T06:24:59;101310.38;;;34.68;45.02
51297;BME280;37380;45.186;9.792;2023-06-22T06:27:26;101350.69;;;34.42;49.86
51297;BME280;37380;45.186;9.792;2023-06-22T06:29:56;101359.78;;;34.41;44.65
51297;BME280;37380;45.186;9.792;2023-06-22T06:32:23;101311.63;;;33.61;44.87
51297;BME280;37380;45.186;9.792;2023-06-22T06:34:51;101327.84;;;33.07;46.31
51297;BME280;37380;45.186;9.792;2023-06-22T06:37:17;101321.47;;;34.14;41.40
51297;BME280;37380;45.186;9.792;2023-06-22T06:39:45;101335.75;;;33.66;43.65
51297;BME280;37380;45.186;9.792;2023-06-22T06:42:12;101324.16;;;32.53;44.57
51297;BME280;37380;45.186;9.792;2023-06-22T06:44:39;101355.56;;;32.16;47.01
51297;BME280;37380;45.186;9.792;2023-06-22T06:47:06;101363.81;;;32.13;47.08
51297;BME280;37380;45.186;9.792;2023-06-22T06:49:34;101361.38;;;32.28;46.26
51297;BME280;37380;45.186;9.792;2023-06-22T06:52:01;101316.66;;;31.15;49.49
51297;BME280;37380;45.186;9.792;2023-06-22T06:54:28;101332.97;;;32.95;43.88
51297;BME280;37380;45.186;9.792;2023-06-22T06:56:55;101376.56;;;33.80;43.33
51297;BME280;37380;45.186;9.792;2023-06-22T06:59:22;101351.78;;;34.05;42.42
51297;BME280;37380;45.186;9.792;2023-06-22T07:01:49;101381.28;;;33.59;45.72
51297;BME280;37380;45.186;9.792;2023-06-22T07:04:16;101352.41;;;33.22;48.43
51297;BME280;37380;45.186;9.792;2023-06-22T07:06:44;101344.56;;;30.92;50.64
51297;BME280;37380;45.186;9.792;2023-06-22T07:09:12;101328.78;;;30.11;54.86
51297;BME280;37380;45.186;9.792;2023-06-22T07:11:40;101369.13;;;29.61;57.83
51297;BME280;37380;45.186;9.792;2023-06-22T07:14:07;101313.09;;;28.91;60.19
51297;BME280;37380;45.186;9.792;2023-06-22T07:16:34;101310.16;;;28.39;62.79
51297;BME280;37380;45.186;9.792;2023-06-22T07:19:01;101362.59;;;30.92;55.10
51297;BME280;37380;45.186;9.792;2023-06-22T07:21:28;101329.75;;;30.80;52.62
51297;BME280;37380;45.186;9.792;2023-06-22T07:23:55;101317.81;;;30.87;52.31
51297;BME280;37380;45.186;9.792;2023-06-22T07:26:23;101232.13;;;30.49;53.08
51297;BME280;37380;45.186;9.792;2023-06-22T07:28:50;101344.38;;;33.56;46.54
51297;BME280;37380;45.186;9.792;2023-06-22T07:31:17;101273.78;;;32.51;47.19
51297;BME280;37380;45.186;9.792;2023-06-22T07:33:44;101287.19;;;33.09;47.01
51297;BME280;37380;45.186;9.792;2023-06-22T07:36:11;101338.97;;;32.44;49.34
51297;BME280;37380;45.186;9.792;2023-06-22T07:38:39;101349.47;;;30.59;54.55
51297;BME280;37380;45.186;9.792;2023-06-22T07:41:06;101292.00;;;30.57;55.39
51297;BME280;37380;45.186;9.792;2023-06-22T07:43:33;101348.16;;;30.22;58.57
51297;BME280;37380;45.186;9.792;2023-06-22T07:46:01;101299.19;;;30.34;57.06
51297;BME280;37380;45.186;9.792;2023-06-22T07:48:28;101278.72;;;29.80;58.48
51297;BME280;37380;45.186;9.792;2023-06-22T07:50:55;101270.63;;;30.74;54.34
51297;BME280;37380;45.186;9.792;2023-06-22T07:53:23;101291.22;;;29.81;59.12
51297;BME280;37380;45.186;9.792;2023-06-22T07:55:50;101271.75;;;30.47;57.70
51297;BME280;37380;45.186;9.792;2023-06-22T07:58:17;101277.25;;;32.90;50.25
51297;BME280;37380;45.186;9.792;2023-06-22T08:00:46;101268.06;;;32.76;48.89
51297;BME280;37380;45.186;9.792;2023-06-22T08:03:14;101297.16;;;34.13;45.82
51297;BME280;37380;45.186;9.792;2023-06-22T08:05:41;101325.75;;;32.18;51.44
51297;BME280;37380;45.186;9.792;2023-06-22T08:08:08;101266.91;;;31.84;51.38
51297;BME280;37380;45.186;9.792;2023-06-22T08:10:35;101252.06;;;31.94;51.09
51297;BME280;37380;45.186;9.792;2023-06-22T08:13:03;101234.19;;;31.08;53.67
51297;BME280;37380;45.186;9.792;2023-06-22T08:15:30;101215.03;;;31.34;52.86
51297;BME280;37380;45.186;9.792;2023-06-22T08:17:57;101237.63;;;32.71;51.07
51297;BME280;37380;45.186;9.792;2023-06-22T08:20:26;101236.13;;;33.71;49.91
51297;BME280;37380;45.186;9.792;2023-06-22T08:22:55;101217.84;;;34.57;45.76
51297;BME280;37380;45.186;9.792;2023-06-22T08:25:23;101233.03;;;33.09;49.02
51297;BME280;37380;45.186;9.792;2023-06-22T08:27:50;101294.81;;;33.54;48.38
51297;BME280;37380;45.186;9.792;2023-06-22T08:30:17;101270.09;;;34.60;44.04
51297;BME280;37380;45.186;9.792;2023-06-22T08:32:47;101201.63;;;34.71;46.30
51297;BME280;37380;45.186;9.792;2023-06-22T08:35:15;101294.19;;;35.44;44.93
51297;BME280;37380;45.186;9.792;2023-06-22T08:37:42;101243.56;;;35.27;45.29
51297;BME280;37380;45.186;9.792;2023-06-22T08:40:09;101289.31;;;34.40;46.05
51297;BME280;37380;45.186;9.792;2023-06-22T08:42:39;101246.44;;;34.31;46.33
51297;BME280;37380;45.186;9.792;2023-06-22T08:45:07;101268.53;;;35.64;43.19
51297;BME280;37380;45.186;9.792;2023-06-22T08:47:34;101279.50;;;33.53;49.12
51297;BME280;37380;45.186;9.792;2023-06-22T08:50:02;101232.31;;;33.40;48.32
51297;BME280;37380;45.186;9.792;2023-06-22T08:52:32;101241.16;;;32.54;51.49
51297;BME280;37380;45.186;9.792;2023-06-22T08:54:59;101287.72;;;31.61;55.76
51297;BME280;37380;45.186;9.792;2023-06-22T08:57:27;101215.97;;;30.93;58.23
51297;BME280;37380;45.186;9.792;2023-06-22T08:59:54;101294.00;;;31.62;57.37
51297;BME280;37380;45.186;9.792;2023-06-22T09:02:26;101308.03;;;31.07;59.33
51297;BME280;37380;45.186;9.792;2023-06-22T09:04:58;101243.78;;;31.37;58.98
51297;BME280;37380;45.186;9.792;2023-06-22T09:07:26;101263.06;;;32.10;56.30
51297;BME280;37380;45.186;9.792;2023-06-22T09:09:53;101295.44;;;31.91;57.53
51297;BME280;37380;45.186;9.792;2023-06-22T09:12:20;101305.72;;;32.03;67.21
51297;BME280;37380;45.186;9.792;2023-06-22T09:14:51;101290.88;;;32.51;53.32
51297;BME280;37380;45.186;9.792;2023-06-22T09:17:19;101293.13;;;31.61;56.77
51297;BME280;37380;45.186;9.792;2023-06-22T09:19:46;101315.34;;;31.68;57.06
51297;BME280;37380;45.186;9.792;2023-06-22T09:22:14;101310.66;;;30.86;61.02
51297;BME280;37380;45.186;9.792;2023-06-22T09:24:41;101315.66;;;31.18;59.32
51297;BME280;37380;45.186;9.792;2023-06-22T09:27:08;101252.91;;;30.90;57.52
51297;BME280;37380;45.186;9.792;2023-06-22T09:29:35;101310.00;;;31.24;59.36
51297;BME280;37380;45.186;9.792;2023-06-22T09:32:03;101281.72;;;31.32;56.83
51297;BME280;37380;45.186;9.792;2023-06-22T09:34:30;101300.31;;;32.03;54.30
51297;BME280;37380;45.186;9.792;2023-06-22T09:36:58;101279.44;;;31.66;54.62
51297;BME280;37380;45.186;9.792;2023-06-22T09:39:27;101243.44;;;31.45;53.18
51297;BME280;37380;45.186;9.792;2023-06-22T09:41:54;101244.59;;;31.17;54.27
51297;BME280;37380;45.186;9.792;2023-06-22T09:44:21;101261.31;;;31.05;55.98
51297;BME280;37380;45.186;9.792;2023-06-22T09:46:48;101240.94;;;31.18;54.55
51297;BME280;37380;45.186;9.792;2023-06-22T09:49:16;101222.22;;;30.93;55.32
51297;BME280;37380;45.186;9.792;2023-06-22T09:51:44;101214.06;;;31.37;54.12
51297;BME280;37380;45.186;9.792;2023-06-22T09:54:12;101222.03;;;31.18;54.73
51297;BME280;37380;45.186;9.792;2023-06-22T09:56:39;101236.59;;;32.16;51.61
51297;BME280;37380;45.186;9.792;2023-06-22T09:59:08;101255.50;;;33.28;48.54
51297;BME280;37380;45.186;9.792;2023-06-22T10:01:46;101231.22;;;33.95;46.59
51297;BME280;37380;45.186;9.792;2023-06-22T10:04:13;101210.16;;;32.78;47.71
51297;BME280;37380;45.186;9.792;2023-06-22T10:06:40;101209.69;;;33.58;50.43
51297;BME280;37380;45.186;9.792;2023-06-22T10:09:08;101256.72;;;33.57;46.74
51297;BME280;37380;45.186;9.792;2023-06-22T10:11:35;101209.84;;;34.22;45.08
51297;BME280;37380;45.186;9.792;2023-06-22T10:14:02;101221.72;;;33.35;45.49
51297;BME280;37380;45.186;9.792;2023-06-22T10:16:31;101226.19;;;33.54;45.83
51297;BME280;37380;45.186;9.792;2023-06-22T10:18:59;101195.53;;;31.69;51.20
51297;BME280;37380;45.186;9.792;2023-06-22T10:21:26;101194.66;;;32.27;47.66
51297;BME280;37380;45.186;9.792;2023-06-22T10:23:55;101158.09;;;32.37;45.26
51297;BME280;37380;45.186;9.792;2023-06-22T10:26:22;101197.25;;;33.72;42.02
51297;BME280;37380;45.186;9.792;2023-06-22T10:28:50;101201.53;;;34.25;43.81
51297;BME280;37380;45.186;9.792;2023-06-22T10:31:26;101204.50;;;34.20;43.37
51297;BME280;37380;45.186;9.792;2023-06-22T10:33:55;101163.56;;;33.43;44.14
51297;BME280;37380;45.186;9.792;2023-06-22T10:36:23;101206.97;;;33.06;45.71
51297;BME280;37380;45.186;9.792;2023-06-22T10:38:50;101172.63;;;33.59;43.40
51297;BME280;37380;45.186;9.792;2023-06-22T10:41:18;101105.13;;;33.04;45.29
51297;BME280;37380;45.186;9.792;2023-06-22T10:43:45;101139.41;;;33.55;45.95
51297;BME280;37380;45.186;9.792;2023-06-22T10:46:12;101170.06;;;34.84;45.31
51297;BME280;37380;45.186;9.792;2023-06-22T10:48:39;101207.00;;;34.57;40.72
51297;BME280;37380;45.186;9.792;2023-06-22T10:51:06;101159.63;;;34.15;41.91
51297;BME280;37380;45.186;9.792;2023-06-22T10:53:33;101178.78;;;34.28;40.45
51297;BME280;37380;45.186;9.792;2023-06-22T10:56:00;101125.41;;;34.28;40.79
51297;BME280;37380;45.186;9.792;2023-06-22T10:58:27;101144.88;;;34.82;40.82
51297;BME280;37380;45.186;9.792;2023-06-22T11:00:54;101170.66;;;35.93;38.74
51297;BME280;37380;45.186;9.792;2023-06-22T11:03:21;101143.63;;;36.60;38.21
51297;BME280;37380;45.186;9.792;2023-06-22T11:05:48;101117.25;;;35.77;41.17
51297;BME280;37380;45.186;9.792;2023-06-22T11:08:15;101147.31;;;35.31;38.03
51297;BME280;37380;45.186;9.792;2023-06-22T11:10:43;101159.41;;;35.56;35.86
51297;BME280;37380;45.186;9.792;2023-06-22T11:13:10;101110.56;;;35.26;35.41
51297;BME280;37380;45.186;9.792;2023-06-22T11:15:39;101111.34;;;34.67;37.20
51297;BME280;37380;45.186;9.792;2023-06-22T11:18:06;101079.16;;;34.91;35.59
51297;BME280;37380;45.186;9.792;2023-06-22T11:20:34;101088.69;;;35.13;37.75
51297;BME280;37380;45.186;9.792;2023-06-22T11:23:06;101103.66;;;35.20;37.31
51297;BME280;37380;45.186;9.792;2023-06-22T11:25:33;101112.03;;;34.09;39.32
51297;BME280;37380;45.186;9.792;2023-06-22T11:28:02;101086.56;;;33.96;41.11
51297;BME280;37380;45.186;9.792;2023-06-22T11:30:30;101103.59;;;34.91;39.45
51297;BME280;37380;45.186;9.792;2023-06-22T11:32:58;101078.63;;;34.85;42.44
51297;BME280;37380;45.186;9.792;2023-06-22T11:35:26;101084.81;;;35.31;40.32
51297;BME280;37380;45.186;9.792;2023-06-22T11:37:53;101117.91;;;34.93;41.75
51297;BME280;37380;45.186;9.792;2023-06-22T11:40:20;101112.28;;;34.82;41.62
51297;BME280;37380;45.186;9.792;2023-06-22T11:42:47;101048.25;;;34.64;39.86
51297;BME280;37380;45.186;9.792;2023-06-22T11:45:14;101101.66;;;34.63;42.23
51297;BME280;37380;45.186;9.792;2023-06-22T11:47:41;101096.91;;;35.56;39.86
51297;BME280;37380;45.186;9.792;2023-06-22T11:50:10;101091.78;;;36.07;37.94
51297;BME280;37380;45.186;9.792;2023-06-22T11:52:37;101066.34;;;35.94;37.37
51297;BME280;37380;45.186;9.792;2023-06-22T11:55:05;101098.16;;;34.91;39.64
51297;BME280;37380;45.186;9.792;2023-06-22T11:57:35;101107.66;;;35.29;37.94
51297;BME280;37380;45.186;9.792;2023-06-22T12:00:04;101111.72;;;34.91;41.94
51297;BME280;37380;45.186;9.792;2023-06-22T12:02:44;101103.78;;;35.62;43.67
51297;BME280;37380;45.186;9.792;2023-06-22T12:05:12;101080.38;;;36.42;41.00
51297;BME280;37380;45.186;9.792;2023-06-22T12:07:39;101070.47;;;36.81;36.54
51297;BME280;37380;45.186;9.792;2023-06-22T12:10:06;101079.13;;;35.36;38.49
51297;BME280;37380;45.186;9.792;2023-06-22T12:12:33;101072.03;;;36.03;37.79
51297;BME280;37380;45.186;9.792;2023-06-22T12:15:01;101066.38;;;35.79;40.22
51297;BME280;37380;45.186;9.792;2023-06-22T12:17:31;101085.00;;;35.86;37.92
51297;BME280;37380;45.186;9.792;2023-06-22T12:19:58;101061.00;;;35.92;40.26
51297;BME280;37380;45.186;9.792;2023-06-22T12:22:25;101037.03;;;36.39;38.00
51297;BME280;37380;45.186;9.792;2023-06-22T12:24:52;101073.66;;;37.00;38.07
51297;BME280;37380;45.186;9.792;2023-06-22T12:27:19;101066.13;;;37.42;37.43
51297;BME280;37380;45.186;9.792;2023-06-22T12:29:46;101108.31;;;37.75;37.79
51297;BME280;37380;45.186;9.792;2023-06-22T12:32:14;101062.41;;;36.66;36.71
51297;BME280;37380;45.186;9.792;2023-06-22T12:34:42;101081.44;;;37.06;39.04
51297;BME280;37380;45.186;9.792;2023-06-22T12:37:10;101089.47;;;37.21;39.42
51297;BME280;37380;45.186;9.792;2023-06-22T12:39:37;101096.22;;;37.79;36.28
51297;BME280;37380;45.186;9.792;2023-06-22T12:42:04;101082.72;;;37.52;34.92
51297;BME280;37380;45.186;9.792;2023-06-22T12:44:32;101093.06;;;37.59;35.62
51297;BME280;37380;45.186;9.792;2023-06-22T12:46:59;101064.63;;;37.25;33.80
51297;BME280;37380;45.186;9.792;2023-06-22T12:49:26;101037.50;;;37.11;36.24
51297;BME280;37380;45.186;9.792;2023-06-22T12:51:53;101095.16;;;37.30;36.59
51297;BME280;37380;45.186;9.792;2023-06-22T12:54:20;101052.31;;;37.32;36.48
51297;BME280;37380;45.186;9.792;2023-06-22T12:56:49;101049.34;;;36.71;34.58